Time;durP1;ratioP1;P1;durP2;ratioP2;P2;SDS_P1;SDS_P2;PMS_P1;PMS_P2;Temp;Humidity;BMP_temperature;BMP_pressure;BME280_temperature;BME280_humidity;BME280_pressure;Samples;Min_cycle;Max_cycle;Signal;HPM_P1;HPM_P2
2024/05/08 00:00:15;;;;;;;11.02;5.68;;;;;;;6.75;100.00;97886.56;5512810;25;20225;-70
2024/05/08 00:02:41;;;;;;;11.00;5.93;;;;;;;6.89;100.00;97874.19;5545209;25;20268;-70
2024/05/08 00:07:11;;;;;;;10.20;5.40;;;;;;;6.63;100.00;97882.47;5582947;25;20379;-70
2024/05/08 00:09:37;;;;;;;11.27;5.90;;;;;;;6.72;100.00;97876.28;5545824;25;20229;-70
2024/05/08 00:12:03;;;;;;;12.87;6.53;;;;;;;6.61;100.00;97889.41;5543776;25;20220;-70
2024/05/08 00:14:28;;;;;;;10.50;6.03;;;;;;;6.82;100.00;97895.88;5545870;25;20213;-70
2024/05/08 00:16:54;;;;;;;11.13;6.20;;;;;;;6.77;100.00;97889.06;5543673;25;20450;-69
2024/05/08 00:19:20;;;;;;;10.63;6.00;;;;;;;6.90;100.00;97881.06;5543712;25;20260;-69
2024/05/08 00:21:46;;;;;;;11.35;6.28;;;;;;;6.85;100.00;97876.88;5543872;25;20665;-70
2024/05/08 00:24:11;;;;;;;14.50;6.77;;;;;;;6.98;100.00;97886.03;5543716;25;20221;-70
2024/05/08 00:26:37;;;;;;;10.80;6.33;;;;;;;6.97;100.00;97881.78;5545440;25;20585;-71
2024/05/08 00:31:09;;;;;;;12.38;7.53;;;;;;;6.94;100.00;97893.91;5583152;25;20439;-70
2024/05/08 00:33:34;;;;;;;12.80;6.87;;;;;;;6.73;100.00;97903.78;5545795;25;20665;-70
2024/05/08 00:36:00;;;;;;;10.20;6.57;;;;;;;6.84;100.00;97907.00;5545630;25;20217;-71
2024/05/08 00:38:25;;;;;;;13.53;6.00;;;;;;;6.91;100.00;97892.22;5545560;25;20221;-71
2024/05/08 00:40:56;;;;;;;10.77;5.73;;;;;;;6.66;100.00;97897.06;5545550;25;20217;-68
2024/05/08 00:43:22;;;;;;;10.30;6.03;;;;;;;6.69;100.00;97896.97;5545728;25;20739;-69
2024/05/08 00:45:47;;;;;;;14.50;6.23;;;;;;;6.80;100.00;97896.75;5545665;25;20213;-70
2024/05/08 00:48:13;;;;;;;11.10;6.00;;;;;;;6.65;100.00;97874.72;5512638;25;20221;-70
2024/05/08 00:50:39;;;;;;;10.97;6.50;;;;;;;6.95;100.00;97887.84;5512456;25;20252;-70
2024/05/08 00:55:09;;;;;;;11.77;6.93;;;;;;;6.94;100.00;97883.56;5582939;25;20365;-72
2024/05/08 00:57:35;;;;;;;12.18;6.85;;;;;;;6.52;100.00;97882.69;5545771;25;20280;-70
2024/05/08 01:00:01;;;;;;;11.57;6.38;;;;;;;6.75;100.00;97880.50;5545674;25;20217;-71
2024/05/08 01:02:27;;;;;;;12.37;7.57;;;;;;;6.69;100.00;97889.25;5545620;25;20213;-71
2024/05/08 01:04:52;;;;;;;12.70;6.93;;;;;;;6.41;100.00;97894.94;5545597;25;20486;-69
2024/05/08 01:07:18;;;;;;;11.00;6.53;;;;;;;6.22;100.00;97896.16;5512903;25;20489;-70
2024/05/08 01:09:46;;;;;;;11.82;6.40;;;;;;;6.34;100.00;97901.09;5545454;25;20735;-70
2024/05/08 01:12:20;;;;;;;10.90;6.47;;;;;;;6.34;100.00;97898.53;5545340;25;20213;-70
2024/05/08 01:14:46;;;;;;;11.93;7.03;;;;;;;6.40;100.00;97911.31;5545657;25;20546;-70
2024/05/08 01:19:07;;;;;;;10.18;5.68;;;;;;;6.31;100.00;97907.19;5582959;25;20447;-70
2024/05/08 01:21:32;;;;;;;13.93;6.70;;;;;;;6.28;100.00;97911.56;5512936;25;20229;-69
2024/05/08 01:23:58;;;;;;;10.60;5.70;;;;;;;6.19;100.00;97893.66;5545597;25;20561;-70
2024/05/08 01:26:24;;;;;;;10.50;6.23;;;;;;;6.24;100.00;97899.56;5512843;25;20270;-69
2024/05/08 01:28:49;;;;;;;13.03;6.80;;;;;;;6.23;100.00;97903.03;5512899;25;20243;-70
2024/05/08 01:31:15;;;;;;;10.90;6.60;;;;;;;5.98;100.00;97908.63;5545683;25;20217;-70
2024/05/08 01:33:40;;;;;;;11.30;6.23;;;;;;;5.98;100.00;97912.94;5545573;25;20220;-71
2024/05/08 01:36:06;;;;;;;10.57;6.40;;;;;;;6.06;100.00;97886.16;5512527;25;20310;-69
2024/05/08 01:38:32;;;;;;;12.17;7.20;;;;;;;6.23;100.00;97898.72;5545340;25;20221;-69
2024/05/08 01:43:03;;;;;;;12.63;7.30;;;;;;;5.80;100.00;97914.91;5582831;25;20705;-70
2024/05/08 01:45:29;;;;;;;11.05;6.50;;;;;;;5.89;100.00;97924.22;5512925;25;20221;-69
2024/05/08 01:47:55;;;;;;;11.50;6.87;;;;;;;5.93;100.00;97915.56;5545779;25;20212;-71
2024/05/08 01:50:21;;;;;;;13.05;7.15;;;;;;;5.96;100.00;97912.97;5545954;25;20491;-74
2024/05/08 01:52:46;;;;;;;12.00;6.90;;;;;;;6.01;100.00;97913.75;5545623;25;20217;-69
2024/05/08 01:55:12;;;;;;;12.03;6.73;;;;;;;5.65;100.00;97910.88;5545573;25;20212;-70
2024/05/08 01:57:38;;;;;;;12.60;6.87;;;;;;;5.62;100.00;97923.81;5545500;25;20524;-70
2024/05/08 02:00:05;;;;;;;14.02;7.28;;;;;;;5.67;100.00;97910.84;5545419;25;20217;-70
2024/05/08 02:02:31;;;;;;;11.55;6.63;;;;;;;5.59;100.00;97913.53;5546263;25;20330;-71
2024/05/08 02:07:02;;;;;;;13.65;7.25;;;;;;;5.63;100.00;97929.81;5364418;26;20639;-71
2024/05/08 02:09:28;;;;;;;12.33;7.53;;;;;;;5.64;100.00;97923.75;5364912;26;20577;-69
2024/05/08 02:11:53;;;;;;;12.70;6.77;;;;;;;5.67;100.00;97924.56;5364904;26;20332;-70
2024/05/08 02:14:19;;;;;;;12.27;6.90;;;;;;;5.51;100.00;97917.94;5363061;26;20311;-70
2024/05/08 02:16:46;;;;;;;13.47;7.30;;;;;;;5.54;100.00;97933.38;5364737;26;20226;-69
2024/05/08 02:19:12;;;;;;;11.57;7.22;;;;;;;5.50;100.00;97947.19;5363000;26;20226;-70
2024/05/08 02:21:38;;;;;;;11.37;6.40;;;;;;;5.38;100.00;97943.91;5364905;26;20657;-71
2024/05/08 02:24:04;;;;;;;12.48;6.63;;;;;;;5.46;100.00;97945.53;5364722;26;20218;-69
2024/05/08 02:26:30;;;;;;;12.88;7.30;;;;;;;5.39;100.00;97924.16;5364508;26;20260;-70
2024/05/08 02:30:59;;;;;;;14.20;7.60;;;;;;;5.43;100.00;97940.41;5582826;25;20316;-69
2024/05/08 02:33:25;;;;;;;13.20;7.33;;;;;;;5.43;100.00;97950.72;5545812;25;20324;-70
2024/05/08 02:35:50;;;;;;;17.13;8.10;;;;;;;5.64;100.00;97947.81;5545739;25;20259;-69
2024/05/08 02:38:16;;;;;;;12.37;6.97;;;;;;;5.76;100.00;97947.59;5545741;25;20209;-70
2024/05/08 02:40:42;;;;;;;13.00;7.60;;;;;;;5.80;100.00;97943.25;5545804;25;20596;-71
2024/05/08 02:43:07;;;;;;;12.23;7.30;;;;;;;5.77;100.00;97945.91;5545546;25;20221;-70
2024/05/08 02:45:33;;;;;;;12.57;8.13;;;;;;;5.77;100.00;97954.47;5545489;25;20244;-69
2024/05/08 02:47:59;;;;;;;12.73;7.17;;;;;;;5.94;100.00;97963.66;5545551;25;20216;-70
2024/05/08 02:50:24;;;;;;;14.47;7.73;;;;;;;5.89;100.00;97950.84;5545783;25;20297;-70
2024/05/08 02:54:57;;;;;;;12.55;7.50;;;;;;;6.24;100.00;97956.31;5583134;25;20771;-70
2024/05/08 02:57:23;;;;;;;13.67;8.00;;;;;;;6.35;100.00;97946.69;5545776;25;20788;-70
2024/05/08 02:59:48;;;;;;;12.80;7.60;;;;;;;6.41;100.00;97951.72;5545845;25;20270;-71
2024/05/08 03:02:14;;;;;;;15.33;8.10;;;;;;;6.42;100.00;97953.44;5545727;25;20313;-70
2024/05/08 03:04:40;;;;;;;12.83;7.70;;;;;;;6.14;100.00;97940.16;5545628;25;20228;-70
2024/05/08 03:07:05;;;;;;;13.30;7.80;;;;;;;6.07;100.00;97962.59;5545413;25;20221;-70
2024/05/08 03:09:31;;;;;;;12.53;7.90;;;;;;;5.94;100.00;97977.41;5545469;25;20728;-69
2024/05/08 03:11:57;;;;;;;14.30;8.00;;;;;;;6.01;100.00;97985.94;5512796;25;20727;-70
2024/05/08 03:14:22;;;;;;;13.77;8.37;;;;;;;6.12;100.00;97989.16;5545421;25;20220;-71
2024/05/08 03:18:56;;;;;;;14.45;8.85;;;;;;;6.47;100.00;97990.28;5583225;25;20451;-70
2024/05/08 03:21:21;;;;;;;13.60;7.63;;;;;;;6.59;100.00;97978.91;5545639;25;20685;-70
2024/05/08 03:23:47;;;;;;;13.23;7.40;;;;;;;6.66;100.00;97970.16;5545537;25;20213;-72
2024/05/08 03:26:12;;;;;;;13.30;7.70;;;;;;;6.72;100.00;97971.78;5545650;25;20268;-71
2024/05/08 03:28:40;;;;;;;14.33;8.10;;;;;;;6.72;100.00;97969.19;5545614;25;20730;-70
2024/05/08 03:31:06;;;;;;;14.90;8.45;;;;;;;6.74;100.00;97967.44;5545563;25;20736;-70
2024/05/08 03:33:31;;;;;;;12.30;7.50;;;;;;;6.76;100.00;97981.16;5545636;25;20213;-74
2024/05/08 03:36:01;;;;;;;12.60;7.30;;;;;;;6.79;100.00;97975.09;5545726;25;20209;-70
2024/05/08 03:38:27;;;;;;;12.90;7.82;;;;;;;6.80;100.00;97971.63;5512468;25;20221;-70
2024/05/08 03:42:54;;;;;;;11.10;7.40;;;;;;;6.71;100.00;97972.63;5582975;25;20369;-75
2024/05/08 03:45:20;;;;;;;12.87;7.40;;;;;;;6.63;100.00;97977.97;5545705;25;20304;-73
2024/05/08 03:47:45;;;;;;;11.30;6.63;;;;;;;6.56;100.00;97986.69;5512734;25;20232;-70
2024/05/08 03:50:11;;;;;;;13.33;7.43;;;;;;;6.13;100.00;97983.16;5545835;25;20217;-72
2024/05/08 03:52:37;;;;;;;14.33;7.80;;;;;;;6.11;100.00;98004.66;5512986;25;20224;-72
2024/05/08 03:55:03;;;;;;;14.43;8.40;;;;;;;6.17;100.00;98007.16;5545820;25;20781;-70
2024/05/08 03:57:29;;;;;;;14.05;7.47;;;;;;;6.47;100.00;98010.09;5545583;25;20213;-70
2024/05/08 03:59:54;;;;;;;11.87;7.50;;;;;;;6.77;100.00;98018.13;5545385;25;20217;-70
2024/05/08 04:02:25;;;;;;;15.27;8.13;;;;;;;6.91;100.00;98019.59;5512645;25;20557;-71
2024/05/08 04:06:53;;;;;;;11.60;6.85;;;;;;;6.72;100.00;98008.75;5582975;25;20325;-70
2024/05/08 04:09:19;;;;;;;13.20;7.27;;;;;;;6.63;100.00;98008.94;5546050;25;20298;-70
2024/05/08 04:11:44;;;;;;;12.53;7.50;;;;;;;6.46;100.00;98008.41;5545703;25;20224;-70
2024/05/08 04:14:10;;;;;;;15.20;7.80;;;;;;;6.47;100.00;98016.09;5543949;25;20251;-70
2024/05/08 04:16:36;;;;;;;14.07;7.70;;;;;;;6.56;100.00;98021.97;5545645;25;20320;-71
2024/05/08 04:19:05;;;;;;;14.57;7.80;;;;;;;6.68;100.00;98032.09;5544005;25;20247;-70
2024/05/08 04:21:31;;;;;;;12.82;7.50;;;;;;;6.65;100.00;98008.91;5543996;25;20244;-71
2024/05/08 04:23:56;;;;;;;14.70;9.00;;;;;;;6.83;100.00;98024.03;5545646;25;20213;-71
2024/05/08 04:26:22;;;;;;;12.77;7.43;;;;;;;6.85;100.00;98022.28;5545456;25;20734;-71
2024/05/08 04:30:53;;;;;;;15.77;8.18;;;;;;;6.99;100.00;98016.84;5471495;25;20657;-71
2024/05/08 04:33:19;;;;;;;16.20;8.13;;;;;;;7.05;100.00;98023.63;5471956;26;20556;-72
2024/05/08 04:35:45;;;;;;;13.40;7.70;;;;;;;7.26;100.00;98025.78;5471922;26;20219;-71
2024/05/08 04:38:12;;;;;;;17.43;8.80;;;;;;;7.34;100.00;98030.78;5471806;26;20215;-70
2024/05/08 04:40:37;;;;;;;12.82;8.50;;;;;;;7.23;100.00;98028.41;5472395;26;20271;-70
2024/05/08 04:43:04;;;;;;;16.70;8.40;;;;;;;7.24;100.00;98034.44;5472110;26;20215;-71
2024/05/08 04:45:30;;;;;;;15.05;8.95;;;;;;;7.26;100.00;98041.28;5439792;26;20223;-70
2024/05/08 04:47:56;;;;;;;13.85;8.57;;;;;;;7.12;100.00;98032.97;5439761;26;20259;-70
2024/05/08 04:50:24;;;;;;;15.20;8.87;;;;;;;6.89;100.00;98048.88;5439650;26;20227;-70
2024/05/08 04:54:51;;;;;;;15.35;9.43;;;;;;;7.38;100.00;98060.00;5583016;25;20718;-71
2024/05/08 04:57:17;;;;;;;14.55;8.88;;;;;;;7.37;100.00;98040.19;5545990;25;20221;-70
2024/05/08 04:59:43;;;;;;;15.60;8.87;;;;;;;7.48;100.00;98053.75;5543947;25;20213;-70
2024/05/08 05:02:08;;;;;;;14.63;9.40;;;;;;;7.52;100.00;98051.97;5545780;25;20289;-71
2024/05/08 05:04:34;;;;;;;14.30;8.80;;;;;;;7.62;100.00;98031.06;5545786;25;20213;-70
2024/05/08 05:06:59;;;;;;;14.00;9.27;;;;;;;7.63;100.00;98037.91;5543991;25;20250;-71
2024/05/08 05:09:25;;;;;;;16.83;9.57;;;;;;;7.69;100.00;98045.56;5545720;25;20255;-70
2024/05/08 05:11:50;;;;;;;14.20;9.00;;;;;;;7.72;100.00;98042.03;5545930;25;20256;-71
2024/05/08 05:14:16;;;;;;;14.20;8.93;;;;;;;7.76;100.00;98046.25;5545368;25;20275;-71
2024/05/08 05:18:50;;;;;;;14.55;8.85;;;;;;;7.75;100.00;98057.50;5582862;25;20397;-72
2024/05/08 05:21:16;;;;;;;18.50;9.87;;;;;;;7.77;100.00;98050.53;5545975;25;20225;-71
2024/05/08 05:23:41;;;;;;;15.90;9.80;;;;;;;7.67;100.00;98059.38;5543885;25;20307;-71
2024/05/08 05:26:07;;;;;;;16.10;9.63;;;;;;;7.83;100.00;98072.81;5545787;25;20256;-72
2024/05/08 05:28:32;;;;;;;16.80;10.00;;;;;;;7.92;100.00;98067.44;5543734;25;20221;-71
2024/05/08 05:33:49;;;;;;;14.68;9.48;;;;;;;8.09;100.00;98069.63;5545879;25;20603;-70
2024/05/08 05:36:16;;;;;;;16.42;10.25;;;;;;;8.03;100.00;98065.47;5545533;25;20264;-70
2024/05/08 05:38:41;;;;;;;15.80;9.70;;;;;;;8.12;100.00;98071.31;5543659;25;20625;-70
2024/05/08 05:45:48;;;;;;;17.05;11.32;;;;;;;7.95;100.00;98077.72;5508780;26;20354;-71
2024/05/08 05:48:14;;;;;;;15.50;10.30;;;;;;;8.06;100.00;98088.69;5508766;26;20221;-71
2024/05/08 05:50:40;;;;;;;18.17;12.02;;;;;;;8.19;100.00;98088.41;5508970;26;20222;-70
2024/05/08 05:53:07;;;;;;;18.83;11.90;;;;;;;8.11;100.00;98085.97;5509118;26;20318;-73
2024/05/08 05:55:34;;;;;;;19.05;10.93;;;;;;;7.93;100.00;98088.97;5476406;26;20226;-71
2024/05/08 05:58:01;;;;;;;19.85;12.00;;;;;;;8.06;100.00;98100.78;5508495;26;20608;-70
2024/05/08 06:00:26;;;;;;;17.60;11.00;;;;;;;8.20;100.00;98096.09;5508168;26;20642;-70
2024/05/08 06:02:53;;;;;;;17.33;11.80;;;;;;;8.10;100.00;98096.38;5508256;26;20678;-71
2024/05/08 06:06:48;;;;;;;15.23;10.13;;;;;;;8.49;100.00;98098.94;5582958;25;20310;-70
2024/05/08 06:09:14;;;;;;;14.00;9.50;;;;;;;8.32;100.00;98088.97;5545839;25;20290;-71
2024/05/08 06:11:39;;;;;;;16.40;11.87;;;;;;;8.12;100.00;98097.19;5543952;25;20489;-70
2024/05/08 06:14:05;;;;;;;17.43;11.40;;;;;;;8.02;100.00;98102.56;5545690;25;20430;-70
2024/05/08 06:16:31;;;;;;;19.23;12.00;;;;;;;8.08;100.00;98101.59;5545726;25;20225;-70
2024/05/08 06:18:57;;;;;;;19.63;13.23;;;;;;;8.14;100.00;98123.88;5545604;25;20213;-72
2024/05/08 06:21:22;;;;;;;20.90;12.37;;;;;;;8.14;100.00;98123.88;5545579;25;20547;-71
2024/05/08 06:23:50;;;;;;;17.20;11.00;;;;;;;8.09;100.00;98131.72;5545349;25;20669;-70
2024/05/08 06:26:16;;;;;;;20.52;12.38;;;;;;;8.10;100.00;98130.00;5545432;25;20547;-70
2024/05/08 06:30:48;;;;;;;19.60;11.88;;;;;;;8.15;100.00;98154.00;5399482;26;20647;-70
2024/05/08 06:33:15;;;;;;;20.50;12.20;;;;;;;8.34;100.00;98163.06;5400212;26;20248;-70
2024/05/08 06:35:41;;;;;;;18.23;11.93;;;;;;;8.54;100.00;98161.81;5369035;26;20226;-70
2024/05/08 06:38:08;;;;;;;19.85;12.23;;;;;;;8.64;100.00;98165.84;5399945;26;20731;-70
2024/05/08 06:40:34;;;;;;;20.85;12.63;;;;;;;8.74;100.00;98159.56;5399869;26;20261;-70
2024/05/08 06:43:00;;;;;;;22.33;13.40;;;;;;;8.75;100.00;98144.88;5400170;26;20677;-70
2024/05/08 06:45:25;;;;;;;18.53;11.90;;;;;;;8.78;100.00;98161.19;5399858;26;20259;-70
2024/05/08 06:47:51;;;;;;;24.37;14.80;;;;;;;8.79;100.00;98157.72;5368894;26;20323;-70
2024/05/08 06:50:17;;;;;;;24.70;14.82;;;;;;;8.82;100.00;98154.19;5368716;26;20681;-70
2024/05/08 06:54:45;;;;;;;26.08;15.20;;;;;;;9.10;100.00;98162.13;5583040;25;20312;-71
2024/05/08 06:57:11;;;;;;;23.83;15.10;;;;;;;9.09;100.00;98157.00;5544120;25;20654;-71
2024/05/08 06:59:37;;;;;;;20.00;13.50;;;;;;;9.27;100.00;98158.25;5545700;25;20222;-71
2024/05/08 07:02:03;;;;;;;22.33;13.77;;;;;;;9.11;100.00;98156.06;5545606;25;20430;-71
2024/05/08 07:04:28;;;;;;;19.37;11.60;;;;;;;8.99;100.00;98156.41;5545683;25;20225;-71
2024/05/08 07:06:54;;;;;;;23.47;12.73;;;;;;;9.19;100.00;98167.09;5543780;25;20557;-71
2024/05/08 07:09:19;;;;;;;18.80;12.10;;;;;;;9.17;100.00;98176.66;5545604;25;20216;-70
2024/05/08 07:11:45;;;;;;;22.57;12.73;;;;;;;9.54;100.00;98178.25;5543747;25;20253;-70
2024/05/08 07:14:11;;;;;;;21.50;13.33;;;;;;;9.82;100.00;98169.69;5543784;25;20221;-70
2024/05/08 07:18:44;;;;;;;21.75;13.32;;;;;;;10.40;100.00;98145.53;5582991;25;20889;-70
2024/05/08 07:21:10;;;;;;;23.47;13.93;;;;;;;10.49;100.00;98132.25;5545759;25;20234;-71
2024/05/08 07:23:35;;;;;;;21.90;13.47;;;;;;;10.69;100.00;98134.22;5545795;25;20216;-70
2024/05/08 07:26:01;;;;;;;18.37;12.20;;;;;;;10.89;100.00;98115.38;5543872;25;20547;-72
2024/05/08 07:28:27;;;;;;;21.73;11.60;;;;;;;11.06;100.00;98101.78;5545489;25;20255;-70
2024/05/08 07:30:52;;;;;;;17.37;10.97;;;;;;;11.24;100.00;98095.09;5545649;25;20687;-72
2024/05/08 07:33:20;;;;;;;18.10;11.07;;;;;;;11.17;100.00;98094.50;5545521;25;20636;-70
2024/05/08 07:35:46;;;;;;;15.65;10.57;;;;;;;11.12;100.00;98086.84;5545758;25;20319;-70
2024/05/08 07:38:12;;;;;;;17.20;9.85;;;;;;;10.88;100.00;98078.16;5545626;25;20213;-72
2024/05/08 07:42:42;;;;;;;17.88;10.63;;;;;;;10.95;100.00;98089.16;5583517;25;20395;-70
2024/05/08 07:45:08;;;;;;;17.00;10.37;;;;;;;11.05;100.00;98093.16;5545705;25;20625;-70
2024/05/08 07:47:34;;;;;;;16.30;9.47;;;;;;;11.05;100.00;98089.72;5543813;25;20228;-70
2024/05/08 07:50:00;;;;;;;18.13;11.00;;;;;;;11.03;100.00;98087.16;5543898;25;20582;-70
2024/05/08 07:52:25;;;;;;;16.47;10.40;;;;;;;11.11;100.00;98090.34;5545534;25;20221;-71
2024/05/08 07:54:51;;;;;;;17.03;10.80;;;;;;;11.12;100.00;98092.03;5545524;25;20220;-71
2024/05/08 07:57:16;;;;;;;18.90;11.60;;;;;;;11.09;100.00;98081.72;5545802;25;20289;-69
2024/05/08 07:59:42;;;;;;;18.27;9.33;;;;;;;11.03;100.00;98076.75;5545607;25;20743;-71
2024/05/08 08:02:09;;;;;;;18.40;11.07;;;;;;;11.05;100.00;98074.13;5545690;25;20272;-71
2024/05/08 08:06:42;;;;;;;14.93;9.18;;;;;;;10.67;100.00;98079.72;5545285;25;20794;-71
2024/05/08 08:09:07;;;;;;;15.90;9.63;;;;;;;10.82;100.00;98082.69;5506737;26;20750;-71
2024/05/08 08:11:40;;;;;;;16.73;10.50;;;;;;;10.84;100.00;98081.75;5508552;25;20384;-70
2024/05/08 08:14:06;;;;;;;16.70;9.98;;;;;;;10.76;100.00;98087.19;5506722;26;20225;-71
2024/05/08 08:16:32;;;;;;;15.75;9.70;;;;;;;10.66;100.00;98085.81;5508377;25;20837;-71
2024/05/08 08:18:58;;;;;;;21.37;10.60;;;;;;;10.85;100.00;98103.38;5508384;25;20230;-72
2024/05/08 08:21:23;;;;;;;16.90;10.60;;;;;;;11.06;100.00;98112.19;5508574;25;20817;-73
2024/05/08 08:23:49;;;;;;;16.73;10.43;;;;;;;10.50;100.00;98100.22;5508454;25;20213;-72
2024/05/08 08:26:15;;;;;;;17.80;11.13;;;;;;;10.34;100.00;98092.06;5508489;25;20285;-70
2024/05/08 08:30:40;;;;;;;17.48;10.48;;;;;;;10.33;100.00;98091.22;5583158;25;20392;-72
2024/05/08 08:33:07;;;;;;;15.68;10.02;;;;;;;10.50;100.00;98095.03;5545570;25;20220;-71
2024/05/08 08:35:34;;;;;;;17.00;10.20;;;;;;;10.53;100.00;98093.16;5543851;25;20217;-71
2024/05/08 08:38:00;;;;;;;16.67;10.85;;;;;;;10.53;100.00;98092.28;5545740;25;20271;-71
2024/05/08 08:40:26;;;;;;;16.43;10.40;;;;;;;10.53;100.00;98094.91;5545640;25;20228;-70
2024/05/08 08:42:52;;;;;;;16.70;10.03;;;;;;;10.57;100.00;98088.72;5543787;25;20497;-70
2024/05/08 08:45:23;;;;;;;15.00;9.03;;;;;;;10.47;100.00;98102.91;5545795;25;20268;-71
2024/05/08 08:47:51;;;;;;;17.20;10.27;;;;;;;10.51;100.00;98107.09;5543940;25;20448;-71
2024/05/08 08:50:17;;;;;;;14.93;9.00;;;;;;;10.62;100.00;98097.19;5545625;25;20224;-71
2024/05/08 08:54:39;;;;;;;18.17;11.00;;;;;;;10.73;100.00;98102.03;5582905;25;21037;-72
2024/05/08 08:57:13;;;;;;;17.03;10.27;;;;;;;10.79;100.00;98082.78;5543895;25;20221;-71
2024/05/08 08:59:49;;;;;;;15.75;9.63;;;;;;;10.93;100.00;98102.22;5543888;25;20751;-72
2024/05/08 09:02:24;;;;;;;15.20;9.65;;;;;;;11.02;100.00;98100.19;5543892;25;20223;-71
2024/05/08 09:04:50;;;;;;;14.07;9.57;;;;;;;11.05;100.00;98089.72;5543958;25;20217;-71
2024/05/08 09:07:17;;;;;;;14.10;9.20;;;;;;;10.90;100.00;98096.28;5545726;25;20224;-72
2024/05/08 09:09:42;;;;;;;16.95;9.65;;;;;;;10.71;100.00;98089.13;5545856;25;20222;-71
2024/05/08 09:12:08;;;;;;;15.30;10.20;;;;;;;11.08;100.00;98094.81;5545377;25;20316;-71
2024/05/08 09:14:33;;;;;;;15.17;10.20;;;;;;;11.27;100.00;98097.59;5545453;25;20672;-70
2024/05/08 09:18:37;;;;;;;14.68;9.30;;;;;;;11.63;100.00;98086.78;5582891;25;20793;-71
2024/05/08 09:21:03;;;;;;;15.67;9.77;;;;;;;11.77;100.00;98092.31;5543925;25;20231;-71
2024/05/08 09:23:29;;;;;;;16.47;9.53;;;;;;;12.08;100.00;98091.16;5545623;25;20232;-71
2024/05/08 09:26:01;;;;;;;15.07;9.33;;;;;;;11.93;100.00;98083.94;5545670;25;20414;-72
2024/05/08 09:28:27;;;;;;;14.88;9.13;;;;;;;11.99;100.00;98081.09;5545737;25;20812;-71
2024/05/08 09:31:01;;;;;;;14.07;9.30;;;;;;;11.61;100.00;98080.78;5544243;25;20232;-72
2024/05/08 09:33:26;;;;;;;14.57;8.98;;;;;;;11.34;100.00;98083.47;5545752;25;20777;-72
2024/05/08 09:35:53;;;;;;;15.70;9.00;;;;;;;11.59;100.00;98075.63;5545760;25;20217;-72
2024/05/08 09:38:24;;;;;;;14.27;8.52;;;;;;;11.75;100.00;98088.06;5543728;25;20456;-71
2024/05/08 09:42:36;;;;;;;17.70;10.05;;;;;;;11.63;100.00;98072.00;5583004;25;20360;-71
2024/05/08 09:45:02;;;;;;;12.52;7.60;;;;;;;11.53;100.00;98073.25;5545866;25;20628;-70
2024/05/08 09:47:30;;;;;;;14.30;9.40;;;;;;;11.44;100.00;98077.06;5545544;25;20217;-71
2024/05/08 09:49:57;;;;;;;14.45;8.65;;;;;;;11.31;100.00;98075.78;5512899;25;20279;-70
2024/05/08 09:52:24;;;;;;;12.95;8.10;;;;;;;11.37;100.00;98079.91;5512859;25;20252;-71
2024/05/08 09:54:57;;;;;;;12.77;7.10;;;;;;;11.51;100.00;98077.66;5513019;25;20224;-71
2024/05/08 09:57:24;;;;;;;12.77;7.88;;;;;;;11.75;100.00;98083.72;5545729;25;20267;-71
2024/05/08 09:59:51;;;;;;;11.45;7.80;;;;;;;11.36;100.00;98075.63;5512796;25;20321;-71
2024/05/08 10:02:19;;;;;;;13.77;7.15;;;;;;;11.64;100.00;98084.13;5545282;25;20701;-71
2024/05/08 10:06:44;;;;;;;11.48;7.55;;;;;;;11.86;100.00;98085.88;5583081;25;20514;-71
2024/05/08 10:09:16;;;;;;;13.55;7.45;;;;;;;11.88;100.00;98090.13;5546159;25;20216;-71
2024/05/08 10:12:02;;;;;;;11.38;7.47;;;;;;;11.97;100.00;98088.09;5546383;25;20329;-72
2024/05/08 10:14:30;;;;;;;11.77;6.55;;;;;;;11.83;100.00;98083.41;5545860;25;20267;-71
2024/05/08 10:17:17;;;;;;;14.25;8.10;;;;;;;11.78;100.00;98094.00;5546012;25;20781;-70
2024/05/08 10:19:48;;;;;;;11.02;6.40;;;;;;;11.89;100.00;98096.19;5544114;25;20359;-73
2024/05/08 10:22:42;;;;;;;11.80;7.15;;;;;;;12.46;100.00;98099.19;5544017;25;20252;-70
2024/05/08 10:25:19;;;;;;;13.27;6.72;;;;;;;12.24;100.00;98099.19;5545901;25;20217;-69
2024/05/08 10:27:48;;;;;;;12.00;7.85;;;;;;;12.06;100.00;98105.97;5543935;25;20602;-70
2024/05/08 10:30:32;;;;;;;12.43;8.00;;;;;;;12.27;100.00;98104.31;5582972;25;20369;-70
2024/05/08 10:33:06;;;;;;;13.90;8.20;;;;;;;12.36;100.00;98098.72;5545869;25;20321;-70
2024/05/08 10:35:32;;;;;;;11.48;6.80;;;;;;;12.37;100.00;98095.22;5545529;25;20434;-70
2024/05/08 10:37:58;;;;;;;12.50;7.20;;;;;;;12.42;100.00;98100.22;5545530;25;20553;-70
2024/05/08 10:40:23;;;;;;;9.73;6.00;;;;;;;12.20;100.00;98105.44;5545727;25;20213;-71
2024/05/08 10:42:52;;;;;;;10.13;6.43;;;;;;;12.26;100.00;98095.66;5512833;25;20246;-75
2024/05/08 10:45:19;;;;;;;12.23;7.18;;;;;;;12.26;100.00;98100.84;5545786;25;20317;-70
2024/05/08 10:47:47;;;;;;;10.27;6.15;;;;;;;12.26;100.00;98098.25;5513125;25;20209;-70
2024/05/08 10:50:18;;;;;;;11.82;7.28;;;;;;;12.30;100.00;98098.97;5545479;25;20264;-71
2024/05/08 10:54:32;;;;;;;11.50;6.80;;;;;;;12.13;100.00;98102.22;5461382;25;2185950;-70
2024/05/08 10:57:00;;;;;;;10.55;6.30;;;;;;;11.84;100.00;98098.97;5507192;26;20663;-72
2024/05/08 10:59:26;;;;;;;10.40;6.32;;;;;;;12.04;100.00;98103.44;5506958;26;20225;-70
2024/05/08 11:01:54;;;;;;;12.00;6.95;;;;;;;12.08;100.00;98107.63;5508584;25;20221;-70
2024/05/08 11:04:28;;;;;;;13.07;7.72;;;;;;;12.02;100.00;98105.25;5508418;25;20268;-69
2024/05/08 11:07:13;;;;;;;14.07;9.52;;;;;;;11.96;100.00;98105.50;5506722;26;20218;-70
2024/05/08 11:09:46;;;;;;;12.95;7.47;;;;;;;11.75;100.00;98106.25;5508565;25;20638;-72
2024/05/08 11:12:19;;;;;;;15.65;8.23;;;;;;;11.80;100.00;98106.94;5508385;25;20218;-72
2024/05/08 11:15:06;;;;;;;11.88;7.65;;;;;;;11.93;100.00;98112.56;5476471;26;20222;-71
2024/05/08 11:18:29;;;;;;;14.27;7.65;;;;;;;11.79;100.00;98111.31;5583083;25;20977;-70
2024/05/08 11:20:56;;;;;;;12.20;7.53;;;;;;;11.89;100.00;98109.19;5546249;25;20684;-71
2024/05/08 11:23:24;;;;;;;15.02;8.82;;;;;;;11.83;100.00;98119.84;5544143;25;20316;-69
2024/05/08 11:25:54;;;;;;;14.07;7.90;;;;;;;11.94;100.00;98117.72;5546110;25;20224;-71
2024/05/08 11:28:21;;;;;;;14.15;8.38;;;;;;;11.86;100.00;98115.38;5546029;25;20328;-72
2024/05/08 11:30:47;;;;;;;12.40;7.45;;;;;;;11.95;100.00;98132.44;5544032;25;20229;-71
2024/05/08 11:33:13;;;;;;;12.00;7.33;;;;;;;12.08;100.00;98130.22;5545970;25;20647;-70
2024/05/08 11:35:38;;;;;;;13.33;7.87;;;;;;;12.23;100.00;98121.81;5543938;25;20248;-71
2024/05/08 11:38:04;;;;;;;12.60;7.73;;;;;;;12.30;100.00;98130.22;5543909;25;20228;-71
2024/05/08 11:42:26;;;;;;;11.55;7.15;;;;;;;12.38;100.00;98125.56;5583174;25;20526;-70
2024/05/08 11:44:51;;;;;;;14.20;8.83;;;;;;;12.42;100.00;98128.88;5543860;25;20221;-71
2024/05/08 11:47:17;;;;;;;13.33;7.70;;;;;;;12.48;100.00;98126.91;5543863;25;20281;-71
2024/05/08 11:49:43;;;;;;;12.47;7.80;;;;;;;12.21;100.00;98123.63;5545670;25;20235;-71
2024/05/08 11:52:09;;;;;;;12.47;7.40;;;;;;;12.34;100.00;98129.19;5545569;25;20220;-71
2024/05/08 11:54:36;;;;;;;12.52;7.60;;;;;;;12.19;100.00;98135.84;5545502;25;20224;-70
2024/05/08 11:57:02;;;;;;;11.57;7.55;;;;;;;12.18;100.00;98128.94;5543748;25;20220;-70
2024/05/08 11:59:28;;;;;;;12.20;7.90;;;;;;;12.05;100.00;98130.31;5543936;25;20574;-71
2024/05/08 12:01:54;;;;;;;14.40;8.05;;;;;;;11.94;100.00;98135.09;5543568;25;20941;-70
2024/05/08 12:06:26;;;;;;;14.10;7.50;;;;;;;11.87;100.00;98130.06;5582285;25;20675;-71
2024/05/08 12:08:51;;;;;;;13.13;7.57;;;;;;;11.84;100.00;98127.59;5512828;25;20228;-71
2024/05/08 12:11:18;;;;;;;11.20;7.10;;;;;;;12.07;100.00;98128.50;5545601;25;20209;-71
2024/05/08 12:13:44;;;;;;;12.60;7.10;;;;;;;12.36;100.00;98134.34;5545729;25;20320;-70
2024/05/08 12:16:10;;;;;;;14.20;8.27;;;;;;;12.10;100.00;98138.81;5545299;25;20623;-70
2024/05/08 12:18:36;;;;;;;15.20;8.57;;;;;;;12.14;100.00;98134.34;5512992;25;20247;-70
2024/05/08 12:21:03;;;;;;;13.35;7.53;;;;;;;12.07;100.00;98138.94;5513071;25;20576;-70